sensor_id;sensor_type;location;lat;lon;timestamp;P1;durP1;ratioP1;P2;durP2;ratioP2
30185;SDS011;31152;49.190;8.122;2023-08-12T00:01:16;6.90;;;3.75;;
30185;SDS011;31152;49.190;8.122;2023-08-12T00:03:43;7.63;;;3.60;;
30185;SDS011;31152;49.190;8.122;2023-08-12T00:06:10;7.03;;;3.83;;
30185;SDS011;31152;49.190;8.122;2023-08-12T00:08:36;7.53;;;3.97;;
30185;SDS011;31152;49.190;8.122;2023-08-12T00:11:03;5.07;;;3.58;;
30185;SDS011;31152;49.190;8.122;2023-08-12T00:13:30;4.82;;;3.47;;
30185;SDS011;31152;49.190;8.122;2023-08-12T00:15:57;5.50;;;3.92;;
30185;SDS011;31152;49.190;8.122;2023-08-12T00:18:24;8.73;;;3.95;;
30185;SDS011;31152;49.190;8.122;2023-08-12T00:20:51;4.65;;;3.47;;
30185;SDS011;31152;49.190;8.122;2023-08-12T00:23:17;7.22;;;4.07;;
30185;SDS011;31152;49.190;8.122;2023-08-12T00:25:44;4.57;;;3.65;;
30185;SDS011;31152;49.190;8.122;2023-08-12T00:28:13;8.23;;;3.90;;
30185;SDS011;31152;49.190;8.122;2023-08-12T00:30:40;5.95;;;3.70;;
30185;SDS011;31152;49.190;8.122;2023-08-12T00:33:07;5.40;;;3.33;;
30185;SDS011;31152;49.190;8.122;2023-08-12T00:35:34;6.22;;;3.72;;
30185;SDS011;31152;49.190;8.122;2023-08-12T00:38:00;5.25;;;4.05;;
30185;SDS011;31152;49.190;8.122;2023-08-12T00:40:27;7.75;;;3.97;;
30185;SDS011;31152;49.190;8.122;2023-08-12T00:42:54;5.05;;;3.50;;
30185;SDS011;31152;49.190;8.122;2023-08-12T00:45:21;5.97;;;3.92;;
30185;SDS011;31152;49.190;8.122;2023-08-12T00:47:47;11.65;;;4.00;;
30185;SDS011;31152;49.190;8.122;2023-08-12T00:50:17;6.13;;;3.78;;
30185;SDS011;31152;49.190;8.122;2023-08-12T00:52:44;4.70;;;4.15;;
30185;SDS011;31152;49.190;8.122;2023-08-12T00:55:11;6.20;;;3.92;;
30185;SDS011;31152;49.190;8.122;2023-08-12T00:57:38;6.25;;;3.95;;
30185;SDS011;31152;49.190;8.122;2023-08-12T01:00:05;5.32;;;3.83;;
30185;SDS011;31152;49.190;8.122;2023-08-12T01:02:32;6.97;;;3.55;;
30185;SDS011;31152;49.190;8.122;2023-08-12T01:05:02;5.75;;;3.67;;
30185;SDS011;31152;49.190;8.122;2023-08-12T01:07:29;5.03;;;3.30;;
30185;SDS011;31152;49.190;8.122;2023-08-12T01:09:56;5.78;;;4.28;;
30185;SDS011;31152;49.190;8.122;2023-08-12T01:12:24;5.88;;;3.50;;
30185;SDS011;31152;49.190;8.122;2023-08-12T01:15:03;6.88;;;3.72;;
30185;SDS011;31152;49.190;8.122;2023-08-12T01:17:37;9.48;;;3.95;;
30185;SDS011;31152;49.190;8.122;2023-08-12T01:20:07;6.95;;;3.72;;
30185;SDS011;31152;49.190;8.122;2023-08-12T01:22:38;6.18;;;3.42;;
30185;SDS011;31152;49.190;8.122;2023-08-12T01:25:10;5.55;;;3.85;;
30185;SDS011;31152;49.190;8.122;2023-08-12T01:27:36;4.60;;;3.50;;
30185;SDS011;31152;49.190;8.122;2023-08-12T01:30:06;9.57;;;3.97;;
30185;SDS011;31152;49.190;8.122;2023-08-12T01:32:45;7.90;;;3.88;;
30185;SDS011;31152;49.190;8.122;2023-08-12T01:38:02;8.70;;;3.35;;
30185;SDS011;31152;49.190;8.122;2023-08-12T01:40:30;4.90;;;3.60;;
30185;SDS011;31152;49.190;8.122;2023-08-12T01:42:58;6.75;;;4.30;;
30185;SDS011;31152;49.190;8.122;2023-08-12T01:45:26;6.75;;;4.20;;
30185;SDS011;31152;49.190;8.122;2023-08-12T01:47:55;9.98;;;4.07;;
30185;SDS011;31152;49.190;8.122;2023-08-12T01:50:24;5.45;;;3.63;;
30185;SDS011;31152;49.190;8.122;2023-08-12T01:52:51;6.38;;;3.72;;
30185;SDS011;31152;49.190;8.122;2023-08-12T01:55:18;7.07;;;4.07;;
30185;SDS011;31152;49.190;8.122;2023-08-12T01:57:45;5.43;;;3.63;;
30185;SDS011;31152;49.190;8.122;2023-08-12T02:00:15;5.45;;;3.72;;
30185;SDS011;31152;49.190;8.122;2023-08-12T02:02:42;4.57;;;3.80;;
30185;SDS011;31152;49.190;8.122;2023-08-12T02:05:13;8.52;;;4.28;;
30185;SDS011;31152;49.190;8.122;2023-08-12T02:07:40;6.65;;;3.92;;
30185;SDS011;31152;49.190;8.122;2023-08-12T02:10:07;5.38;;;3.80;;
30185;SDS011;31152;49.190;8.122;2023-08-12T02:12:34;8.20;;;3.72;;
30185;SDS011;31152;49.190;8.122;2023-08-12T02:15:01;6.00;;;4.10;;
30185;SDS011;31152;49.190;8.122;2023-08-12T02:17:28;8.27;;;4.10;;
30185;SDS011;31152;49.190;8.122;2023-08-12T02:19:55;6.50;;;3.92;;
30185;SDS011;31152;49.190;8.122;2023-08-12T02:22:22;7.43;;;3.88;;
30185;SDS011;31152;49.190;8.122;2023-08-12T02:24:49;5.55;;;3.58;;
30185;SDS011;31152;49.190;8.122;2023-08-12T02:27:15;5.97;;;3.47;;
30185;SDS011;31152;49.190;8.122;2023-08-12T02:29:44;6.15;;;3.80;;
30185;SDS011;31152;49.190;8.122;2023-08-12T02:32:11;6.40;;;4.10;;
30185;SDS011;31152;49.190;8.122;2023-08-12T02:34:38;7.38;;;3.67;;
30185;SDS011;31152;49.190;8.122;2023-08-12T02:37:07;8.13;;;3.70;;
30185;SDS011;31152;49.190;8.122;2023-08-12T02:39:36;7.32;;;3.92;;
30185;SDS011;31152;49.190;8.122;2023-08-12T02:42:03;5.72;;;3.65;;
30185;SDS011;31152;49.190;8.122;2023-08-12T02:44:31;8.30;;;3.65;;
30185;SDS011;31152;49.190;8.122;2023-08-12T02:46:57;6.88;;;4.18;;
30185;SDS011;31152;49.190;8.122;2023-08-12T02:49:27;6.10;;;3.67;;
30185;SDS011;31152;49.190;8.122;2023-08-12T02:51:54;5.63;;;3.88;;
30185;SDS011;31152;49.190;8.122;2023-08-12T02:54:20;6.40;;;4.50;;
30185;SDS011;31152;49.190;8.122;2023-08-12T02:56:49;12.15;;;4.40;;
30185;SDS011;31152;49.190;8.122;2023-08-12T02:59:19;6.95;;;3.78;;
30185;SDS011;31152;49.190;8.122;2023-08-12T03:01:45;10.25;;;4.57;;
30185;SDS011;31152;49.190;8.122;2023-08-12T03:04:12;5.28;;;4.00;;
30185;SDS011;31152;49.190;8.122;2023-08-12T03:06:39;5.38;;;4.18;;
30185;SDS011;31152;49.190;8.122;2023-08-12T03:09:05;9.98;;;4.20;;
30185;SDS011;31152;49.190;8.122;2023-08-12T03:11:33;7.80;;;4.00;;
30185;SDS011;31152;49.190;8.122;2023-08-12T03:13:59;6.63;;;3.90;;
30185;SDS011;31152;49.190;8.122;2023-08-12T03:16:26;6.30;;;4.05;;
30185;SDS011;31152;49.190;8.122;2023-08-12T03:18:53;9.00;;;4.32;;
30185;SDS011;31152;49.190;8.122;2023-08-12T03:21:22;6.25;;;3.90;;
30185;SDS011;31152;49.190;8.122;2023-08-12T03:23:48;8.90;;;4.30;;
30185;SDS011;31152;49.190;8.122;2023-08-12T03:26:15;8.65;;;3.97;;
30185;SDS011;31152;49.190;8.122;2023-08-12T03:28:44;6.05;;;3.83;;
30185;SDS011;31152;49.190;8.122;2023-08-12T03:31:11;6.13;;;4.18;;
30185;SDS011;31152;49.190;8.122;2023-08-12T03:33:38;11.45;;;3.85;;
30185;SDS011;31152;49.190;8.122;2023-08-12T03:36:07;5.95;;;3.95;;
30185;SDS011;31152;49.190;8.122;2023-08-12T03:38:34;4.65;;;3.78;;
30185;SDS011;31152;49.190;8.122;2023-08-12T03:41:02;8.07;;;4.38;;
30185;SDS011;31152;49.190;8.122;2023-08-12T03:43:29;10.23;;;3.58;;
30185;SDS011;31152;49.190;8.122;2023-08-12T03:45:59;5.93;;;4.10;;
30185;SDS011;31152;49.190;8.122;2023-08-12T03:48:28;9.15;;;3.97;;
30185;SDS011;31152;49.190;8.122;2023-08-12T03:50:55;7.43;;;4.28;;
30185;SDS011;31152;49.190;8.122;2023-08-12T03:53:22;8.30;;;4.30;;
30185;SDS011;31152;49.190;8.122;2023-08-12T03:55:51;8.52;;;4.28;;
30185;SDS011;31152;49.190;8.122;2023-08-12T03:58:18;8.52;;;3.85;;
30185;SDS011;31152;49.190;8.122;2023-08-12T04:00:45;6.95;;;4.00;;
30185;SDS011;31152;49.190;8.122;2023-08-12T04:03:12;7.35;;;4.35;;
30185;SDS011;31152;49.190;8.122;2023-08-12T04:05:46;7.60;;;3.78;;
30185;SDS011;31152;49.190;8.122;2023-08-12T04:08:20;10.00;;;4.55;;
30185;SDS011;31152;49.190;8.122;2023-08-12T04:10:48;7.65;;;4.63;;
30185;SDS011;31152;49.190;8.122;2023-08-12T04:13:16;6.47;;;4.35;;
30185;SDS011;31152;49.190;8.122;2023-08-12T04:15:43;7.78;;;4.13;;
30185;SDS011;31152;49.190;8.122;2023-08-12T04:18:15;7.40;;;4.18;;
30185;SDS011;31152;49.190;8.122;2023-08-12T04:20:45;8.07;;;4.40;;
30185;SDS011;31152;49.190;8.122;2023-08-12T04:23:15;8.97;;;3.73;;
30185;SDS011;31152;49.190;8.122;2023-08-12T04:25:43;11.20;;;4.57;;
30185;SDS011;31152;49.190;8.122;2023-08-12T04:28:11;5.45;;;4.18;;
30185;SDS011;31152;49.190;8.122;2023-08-12T04:30:42;6.88;;;4.35;;
30185;SDS011;31152;49.190;8.122;2023-08-12T04:33:10;6.57;;;4.22;;
30185;SDS011;31152;49.190;8.122;2023-08-12T04:35:39;5.97;;;4.57;;
30185;SDS011;31152;49.190;8.122;2023-08-12T04:38:06;7.03;;;4.32;;
30185;SDS011;31152;49.190;8.122;2023-08-12T04:40:33;8.55;;;4.47;;
30185;SDS011;31152;49.190;8.122;2023-08-12T04:43:00;6.60;;;4.57;;
30185;SDS011;31152;49.190;8.122;2023-08-12T04:45:34;8.88;;;4.43;;
30185;SDS011;31152;49.190;8.122;2023-08-12T04:48:04;8.45;;;4.20;;
30185;SDS011;31152;49.190;8.122;2023-08-12T04:50:35;7.55;;;4.70;;
30185;SDS011;31152;49.190;8.122;2023-08-12T04:53:02;15.63;;;4.78;;
30185;SDS011;31152;49.190;8.122;2023-08-12T04:55:31;9.20;;;4.78;;
30185;SDS011;31152;49.190;8.122;2023-08-12T04:57:58;7.85;;;4.70;;
30185;SDS011;31152;49.190;8.122;2023-08-12T05:00:25;6.43;;;4.65;;
30185;SDS011;31152;49.190;8.122;2023-08-12T05:02:56;5.78;;;4.40;;
30185;SDS011;31152;49.190;8.122;2023-08-12T05:05:23;13.55;;;4.80;;
30185;SDS011;31152;49.190;8.122;2023-08-12T05:07:51;5.30;;;4.50;;
30185;SDS011;31152;49.190;8.122;2023-08-12T05:10:18;6.70;;;4.47;;
30185;SDS011;31152;49.190;8.122;2023-08-12T05:12:47;9.05;;;4.47;;
30185;SDS011;31152;49.190;8.122;2023-08-12T05:15:16;11.00;;;4.80;;
30185;SDS011;31152;49.190;8.122;2023-08-12T05:17:43;5.15;;;4.00;;
30185;SDS011;31152;49.190;8.122;2023-08-12T05:20:10;4.85;;;4.18;;
30185;SDS011;31152;49.190;8.122;2023-08-12T05:22:37;7.22;;;5.10;;
30185;SDS011;31152;49.190;8.122;2023-08-12T05:25:03;7.55;;;4.80;;
30185;SDS011;31152;49.190;8.122;2023-08-12T05:27:30;8.95;;;5.00;;
30185;SDS011;31152;49.190;8.122;2023-08-12T05:29:59;8.27;;;5.03;;
30185;SDS011;31152;49.190;8.122;2023-08-12T05:32:27;9.60;;;4.90;;
30185;SDS011;31152;49.190;8.122;2023-08-12T05:34:54;7.50;;;5.07;;
30185;SDS011;31152;49.190;8.122;2023-08-12T05:37:21;9.75;;;4.70;;
30185;SDS011;31152;49.190;8.122;2023-08-12T05:39:50;7.95;;;4.75;;
30185;SDS011;31152;49.190;8.122;2023-08-12T05:42:17;8.43;;;4.88;;
30185;SDS011;31152;49.190;8.122;2023-08-12T05:44:48;5.97;;;4.82;;
30185;SDS011;31152;49.190;8.122;2023-08-12T05:47:15;9.73;;;5.43;;
30185;SDS011;31152;49.190;8.122;2023-08-12T05:49:42;7.82;;;4.90;;
30185;SDS011;31152;49.190;8.122;2023-08-12T05:52:09;11.02;;;4.65;;
30185;SDS011;31152;49.190;8.122;2023-08-12T05:54:36;7.45;;;4.53;;
30185;SDS011;31152;49.190;8.122;2023-08-12T05:57:03;8.00;;;5.03;;
30185;SDS011;31152;49.190;8.122;2023-08-12T05:59:30;9.98;;;5.30;;
30185;SDS011;31152;49.190;8.122;2023-08-12T06:01:57;8.57;;;4.68;;
30185;SDS011;31152;49.190;8.122;2023-08-12T06:04:24;7.90;;;4.93;;
30185;SDS011;31152;49.190;8.122;2023-08-12T06:06:51;7.47;;;5.32;;
30185;SDS011;31152;49.190;8.122;2023-08-12T06:09:21;8.38;;;4.90;;
30185;SDS011;31152;49.190;8.122;2023-08-12T06:11:48;7.50;;;5.30;;
30185;SDS011;31152;49.190;8.122;2023-08-12T06:14:17;8.32;;;5.38;;
30185;SDS011;31152;49.190;8.122;2023-08-12T06:16:43;11.40;;;4.95;;
30185;SDS011;31152;49.190;8.122;2023-08-12T06:19:10;7.75;;;4.72;;
30185;SDS011;31152;49.190;8.122;2023-08-12T06:21:40;6.47;;;4.82;;
30185;SDS011;31152;49.190;8.122;2023-08-12T06:24:09;9.70;;;5.00;;
30185;SDS011;31152;49.190;8.122;2023-08-12T06:26:38;6.82;;;4.72;;
30185;SDS011;31152;49.190;8.122;2023-08-12T06:29:07;7.15;;;4.90;;
30185;SDS011;31152;49.190;8.122;2023-08-12T06:31:34;5.63;;;4.43;;
30185;SDS011;31152;49.190;8.122;2023-08-12T06:34:00;6.80;;;4.65;;
30185;SDS011;31152;49.190;8.122;2023-08-12T06:36:27;10.48;;;5.38;;
30185;SDS011;31152;49.190;8.122;2023-08-12T06:38:56;9.82;;;4.70;;
30185;SDS011;31152;49.190;8.122;2023-08-12T06:41:23;10.68;;;4.82;;
30185;SDS011;31152;49.190;8.122;2023-08-12T06:43:50;9.32;;;4.88;;
30185;SDS011;31152;49.190;8.122;2023-08-12T06:46:19;12.50;;;5.20;;
30185;SDS011;31152;49.190;8.122;2023-08-12T06:48:45;8.98;;;4.88;;
30185;SDS011;31152;49.190;8.122;2023-08-12T06:51:12;6.85;;;4.90;;
30185;SDS011;31152;49.190;8.122;2023-08-12T06:53:39;8.27;;;5.00;;
30185;SDS011;31152;49.190;8.122;2023-08-12T06:56:06;9.30;;;4.70;;
30185;SDS011;31152;49.190;8.122;2023-08-12T06:58:33;7.38;;;5.40;;
30185;SDS011;31152;49.190;8.122;2023-08-12T07:01:02;8.40;;;4.82;;
30185;SDS011;31152;49.190;8.122;2023-08-12T07:03:29;8.75;;;5.18;;
30185;SDS011;31152;49.190;8.122;2023-08-12T07:05:55;7.85;;;4.95;;
30185;SDS011;31152;49.190;8.122;2023-08-12T07:08:22;6.65;;;4.93;;
30185;SDS011;31152;49.190;8.122;2023-08-12T07:10:49;8.77;;;4.88;;
30185;SDS011;31152;49.190;8.122;2023-08-12T07:13:18;12.65;;;5.32;;
30185;SDS011;31152;49.190;8.122;2023-08-12T07:15:45;9.07;;;5.40;;
30185;SDS011;31152;49.190;8.122;2023-08-12T07:18:12;11.50;;;4.75;;
30185;SDS011;31152;49.190;8.122;2023-08-12T07:20:38;6.65;;;4.82;;
30185;SDS011;31152;49.190;8.122;2023-08-12T07:23:05;9.57;;;5.20;;
30185;SDS011;31152;49.190;8.122;2023-08-12T07:25:34;11.10;;;5.30;;
30185;SDS011;31152;49.190;8.122;2023-08-12T07:28:03;11.45;;;5.13;;
30185;SDS011;31152;49.190;8.122;2023-08-12T07:30:30;6.53;;;4.97;;
30185;SDS011;31152;49.190;8.122;2023-08-12T07:33:02;6.65;;;5.20;;
30185;SDS011;31152;49.190;8.122;2023-08-12T07:35:31;6.35;;;5.15;;
30185;SDS011;31152;49.190;8.122;2023-08-12T07:37:58;12.50;;;5.00;;
30185;SDS011;31152;49.190;8.122;2023-08-12T07:40:28;11.55;;;6.10;;
30185;SDS011;31152;49.190;8.122;2023-08-12T07:42:54;7.35;;;4.72;;
30185;SDS011;31152;49.190;8.122;2023-08-12T07:45:24;6.03;;;4.70;;
30185;SDS011;31152;49.190;8.122;2023-08-12T07:47:53;7.53;;;4.60;;
30185;SDS011;31152;49.190;8.122;2023-08-12T07:50:20;8.57;;;5.07;;
30185;SDS011;31152;49.190;8.122;2023-08-12T07:52:47;8.75;;;5.18;;
30185;SDS011;31152;49.190;8.122;2023-08-12T07:55:13;7.13;;;5.28;;
30185;SDS011;31152;49.190;8.122;2023-08-12T07:57:40;7.07;;;5.05;;
30185;SDS011;31152;49.190;8.122;2023-08-12T08:00:07;8.40;;;5.28;;
30185;SDS011;31152;49.190;8.122;2023-08-12T08:02:36;8.45;;;5.07;;
30185;SDS011;31152;49.190;8.122;2023-08-12T08:05:02;5.55;;;4.40;;
30185;SDS011;31152;49.190;8.122;2023-08-12T08:07:30;7.35;;;5.10;;
30185;SDS011;31152;49.190;8.122;2023-08-12T08:09:57;9.55;;;5.10;;
30185;SDS011;31152;49.190;8.122;2023-08-12T08:12:23;7.30;;;4.93;;
30185;SDS011;31152;49.190;8.122;2023-08-12T08:14:52;8.38;;;4.70;;
30185;SDS011;31152;49.190;8.122;2023-08-12T08:17:22;8.02;;;4.82;;
30185;SDS011;31152;49.190;8.122;2023-08-12T08:19:49;7.78;;;4.82;;
30185;SDS011;31152;49.190;8.122;2023-08-12T08:22:15;5.72;;;4.40;;
30185;SDS011;31152;49.190;8.122;2023-08-12T08:24:42;9.23;;;4.75;;
30185;SDS011;31152;49.190;8.122;2023-08-12T08:27:11;7.35;;;4.72;;
30185;SDS011;31152;49.190;8.122;2023-08-12T08:29:39;8.27;;;5.15;;
30185;SDS011;31152;49.190;8.122;2023-08-12T08:32:06;6.30;;;4.43;;
30185;SDS011;31152;49.190;8.122;2023-08-12T08:34:33;8.38;;;4.13;;
30185;SDS011;31152;49.190;8.122;2023-08-12T08:37:02;7.57;;;4.78;;
30185;SDS011;31152;49.190;8.122;2023-08-12T08:39:29;10.30;;;4.60;;
30185;SDS011;31152;49.190;8.122;2023-08-12T08:41:56;6.05;;;4.53;;
30185;SDS011;31152;49.190;8.122;2023-08-12T08:44:24;6.18;;;4.40;;
30185;SDS011;31152;49.190;8.122;2023-08-12T08:46:55;4.97;;;4.30;;
30185;SDS011;31152;49.190;8.122;2023-08-12T08:49:22;6.68;;;4.80;;
30185;SDS011;31152;49.190;8.122;2023-08-12T08:51:50;7.40;;;4.32;;
30185;SDS011;31152;49.190;8.122;2023-08-12T08:54:22;7.25;;;4.63;;
30185;SDS011;31152;49.190;8.122;2023-08-12T08:56:51;8.45;;;4.78;;
30185;SDS011;31152;49.190;8.122;2023-08-12T08:59:29;6.63;;;4.75;;
30185;SDS011;31152;49.190;8.122;2023-08-12T09:01:56;6.70;;;4.60;;
30185;SDS011;31152;49.190;8.122;2023-08-12T09:04:25;10.43;;;4.45;;
30185;SDS011;31152;49.190;8.122;2023-08-12T09:06:53;6.60;;;4.65;;
30185;SDS011;31152;49.190;8.122;2023-08-12T09:09:21;8.98;;;5.30;;
30185;SDS011;31152;49.190;8.122;2023-08-12T09:11:50;8.40;;;4.72;;
30185;SDS011;31152;49.190;8.122;2023-08-12T09:14:18;6.82;;;4.65;;
30185;SDS011;31152;49.190;8.122;2023-08-12T09:16:45;7.35;;;4.90;;
30185;SDS011;31152;49.190;8.122;2023-08-12T09:19:12;4.72;;;4.05;;
30185;SDS011;31152;49.190;8.122;2023-08-12T09:21:39;9.65;;;5.03;;
30185;SDS011;31152;49.190;8.122;2023-08-12T09:24:09;9.40;;;4.40;;
30185;SDS011;31152;49.190;8.122;2023-08-12T09:26:43;6.50;;;4.30;;
30185;SDS011;31152;49.190;8.122;2023-08-12T09:29:10;7.13;;;4.63;;
30185;SDS011;31152;49.190;8.122;2023-08-12T09:31:37;10.85;;;4.75;;
30185;SDS011;31152;49.190;8.122;2023-08-12T09:34:05;9.55;;;5.15;;
30185;SDS011;31152;49.190;8.122;2023-08-12T09:36:34;7.60;;;4.43;;
30185;SDS011;31152;49.190;8.122;2023-08-12T09:39:07;11.40;;;4.70;;
30185;SDS011;31152;49.190;8.122;2023-08-12T09:41:37;4.88;;;4.25;;
30185;SDS011;31152;49.190;8.122;2023-08-12T09:44:05;5.57;;;4.10;;
30185;SDS011;31152;49.190;8.122;2023-08-12T09:46:34;5.50;;;4.75;;
30185;SDS011;31152;49.190;8.122;2023-08-12T09:49:01;10.95;;;4.63;;
30185;SDS011;31152;49.190;8.122;2023-08-12T09:51:34;9.43;;;4.63;;
30185;SDS011;31152;49.190;8.122;2023-08-12T09:54:03;6.15;;;4.30;;
30185;SDS011;31152;49.190;8.122;2023-08-12T09:56:31;7.22;;;4.85;;
30185;SDS011;31152;49.190;8.122;2023-08-12T09:59:02;9.00;;;4.82;;
30185;SDS011;31152;49.190;8.122;2023-08-12T10:01:32;9.98;;;4.72;;
30185;SDS011;31152;49.190;8.122;2023-08-12T10:03:59;6.07;;;4.43;;
30185;SDS011;31152;49.190;8.122;2023-08-12T10:06:27;8.32;;;4.60;;
30185;SDS011;31152;49.190;8.122;2023-08-12T10:08:57;6.55;;;4.68;;
30185;SDS011;31152;49.190;8.122;2023-08-12T10:11:24;7.65;;;4.55;;
30185;SDS011;31152;49.190;8.122;2023-08-12T10:13:52;6.72;;;4.68;;
30185;SDS011;31152;49.190;8.122;2023-08-12T10:16:22;5.93;;;4.68;;
30185;SDS011;31152;49.190;8.122;2023-08-12T10:18:49;6.35;;;4.30;;
30185;SDS011;31152;49.190;8.122;2023-08-12T10:21:17;8.65;;;4.80;;
30185;SDS011;31152;49.190;8.122;2023-08-12T10:23:44;6.22;;;4.20;;
30185;SDS011;31152;49.190;8.122;2023-08-12T10:26:13;7.70;;;4.30;;
30185;SDS011;31152;49.190;8.122;2023-08-12T10:28:41;10.52;;;4.30;;
30185;SDS011;31152;49.190;8.122;2023-08-12T10:31:11;4.95;;;4.07;;
30185;SDS011;31152;49.190;8.122;2023-08-12T10:33:38;8.77;;;4.40;;
30185;SDS011;31152;49.190;8.122;2023-08-12T10:36:06;9.13;;;4.45;;
30185;SDS011;31152;49.190;8.122;2023-08-12T10:38:33;6.20;;;4.10;;
30185;SDS011;31152;49.190;8.122;2023-08-12T10:43:53;7.03;;;4.40;;
30185;SDS011;31152;49.190;8.122;2023-08-12T10:46:26;14.18;;;5.78;;
30185;SDS011;31152;49.190;8.122;2023-08-12T10:49:08;13.98;;;5.72;;
30185;SDS011;31152;49.190;8.122;2023-08-12T10:54:20;9.68;;;3.65;;
30185;SDS011;31152;49.190;8.122;2023-08-12T10:59:50;5.57;;;2.60;;
30185;SDS011;31152;49.190;8.122;2023-08-12T11:07:40;8.40;;;2.43;;
30185;SDS011;31152;49.190;8.122;2023-08-12T11:10:16;3.58;;;2.03;;
30185;SDS011;31152;49.190;8.122;2023-08-12T11:18:12;3.72;;;2.10;;
30185;SDS011;31152;49.190;8.122;2023-08-12T11:20:40;6.07;;;2.58;;
30185;SDS011;31152;49.190;8.122;2023-08-12T11:23:11;5.10;;;2.78;;
30185;SDS011;31152;49.190;8.122;2023-08-12T11:25:42;5.00;;;2.95;;
30185;SDS011;31152;49.190;8.122;2023-08-12T11:28:10;5.00;;;3.10;;
30185;SDS011;31152;49.190;8.122;2023-08-12T11:30:39;5.05;;;3.13;;
30185;SDS011;31152;49.190;8.122;2023-08-12T11:33:08;5.85;;;3.47;;
30185;SDS011;31152;49.190;8.122;2023-08-12T11:35:36;8.07;;;3.90;;
30185;SDS011;31152;49.190;8.122;2023-08-12T11:38:04;9.02;;;4.20;;
30185;SDS011;31152;49.190;8.122;2023-08-12T11:40:32;6.60;;;3.58;;
30185;SDS011;31152;49.190;8.122;2023-08-12T11:43:01;9.27;;;4.25;;
30185;SDS011;31152;49.190;8.122;2023-08-12T11:45:31;7.45;;;4.32;;
30185;SDS011;31152;49.190;8.122;2023-08-12T11:48:03;6.22;;;4.07;;
30185;SDS011;31152;49.190;8.122;2023-08-12T11:50:31;5.85;;;3.97;;
30185;SDS011;31152;49.190;8.122;2023-08-12T11:53:00;5.90;;;3.97;;
30185;SDS011;31152;49.190;8.122;2023-08-12T11:55:27;5.20;;;3.28;;
30185;SDS011;31152;49.190;8.122;2023-08-12T11:57:57;7.63;;;3.20;;
30185;SDS011;31152;49.190;8.122;2023-08-12T12:00:24;6.32;;;3.30;;
30185;SDS011;31152;49.190;8.122;2023-08-12T12:02:55;5.00;;;3.15;;
30185;SDS011;31152;49.190;8.122;2023-08-12T12:05:31;5.25;;;3.20;;
30185;SDS011;31152;49.190;8.122;2023-08-12T12:08:00;6.97;;;4.80;;
30185;SDS011;31152;49.190;8.122;2023-08-12T12:10:31;5.10;;;3.58;;
30185;SDS011;31152;49.190;8.122;2023-08-12T12:13:01;4.95;;;2.78;;
30185;SDS011;31152;49.190;8.122;2023-08-12T12:15:30;5.53;;;2.90;;
30185;SDS011;31152;49.190;8.122;2023-08-12T12:17:58;5.10;;;3.20;;
30185;SDS011;31152;49.190;8.122;2023-08-12T12:20:25;4.28;;;3.05;;
30185;SDS011;31152;49.190;8.122;2023-08-12T12:22:53;5.32;;;3.13;;
30185;SDS011;31152;49.190;8.122;2023-08-12T12:25:24;4.53;;;3.10;;
30185;SDS011;31152;49.190;8.122;2023-08-12T12:27:52;4.30;;;3.10;;
30185;SDS011;31152;49.190;8.122;2023-08-12T12:30:19;7.63;;;3.35;;
30185;SDS011;31152;49.190;8.122;2023-08-12T12:32:46;5.82;;;3.03;;
30185;SDS011;31152;49.190;8.122;2023-08-12T12:35:13;4.68;;;3.10;;
30185;SDS011;31152;49.190;8.122;2023-08-12T12:37:40;3.40;;;2.85;;
30185;SDS011;31152;49.190;8.122;2023-08-12T12:40:07;6.43;;;2.92;;
30185;SDS011;31152;49.190;8.122;2023-08-12T12:42:34;4.07;;;3.30;;
30185;SDS011;31152;49.190;8.122;2023-08-12T12:45:01;6.82;;;3.42;;
30185;SDS011;31152;49.190;8.122;2023-08-12T12:47:28;4.88;;;3.22;;
30185;SDS011;31152;49.190;8.122;2023-08-12T12:49:55;7.20;;;3.60;;
30185;SDS011;31152;49.190;8.122;2023-08-12T12:52:22;8.23;;;3.92;;
30185;SDS011;31152;49.190;8.122;2023-08-12T12:54:51;5.55;;;3.40;;
30185;SDS011;31152;49.190;8.122;2023-08-12T12:57:20;6.15;;;3.60;;
30185;SDS011;31152;49.190;8.122;2023-08-12T12:59:46;6.03;;;4.00;;
30185;SDS011;31152;49.190;8.122;2023-08-12T13:02:14;8.13;;;4.00;;
30185;SDS011;31152;49.190;8.122;2023-08-12T13:04:41;5.07;;;4.13;;
30185;SDS011;31152;49.190;8.122;2023-08-12T13:07:11;4.95;;;3.63;;
30185;SDS011;31152;49.190;8.122;2023-08-12T13:09:37;6.28;;;4.07;;
30185;SDS011;31152;49.190;8.122;2023-08-12T13:12:07;6.78;;;3.88;;
30185;SDS011;31152;49.190;8.122;2023-08-12T13:14:34;6.63;;;3.75;;
30185;SDS011;31152;49.190;8.122;2023-08-12T13:17:00;8.32;;;4.15;;
30185;SDS011;31152;49.190;8.122;2023-08-12T13:19:27;4.72;;;3.53;;
30185;SDS011;31152;49.190;8.122;2023-08-12T13:21:54;6.07;;;3.50;;
30185;SDS011;31152;49.190;8.122;2023-08-12T13:24:23;6.43;;;3.65;;
30185;SDS011;31152;49.190;8.122;2023-08-12T13:26:50;8.52;;;4.18;;
30185;SDS011;31152;49.190;8.122;2023-08-12T13:29:18;6.07;;;4.10;;
30185;SDS011;31152;49.190;8.122;2023-08-12T13:31:45;6.18;;;3.85;;
30185;SDS011;31152;49.190;8.122;2023-08-12T13:34:12;9.23;;;3.63;;
30185;SDS011;31152;49.190;8.122;2023-08-12T13:36:39;6.97;;;4.47;;
30185;SDS011;31152;49.190;8.122;2023-08-12T13:39:06;7.57;;;4.25;;
30185;SDS011;31152;49.190;8.122;2023-08-12T13:41:33;7.53;;;4.47;;
30185;SDS011;31152;49.190;8.122;2023-08-12T13:43:59;6.72;;;4.32;;
30185;SDS011;31152;49.190;8.122;2023-08-12T13:46:26;7.20;;;4.35;;
30185;SDS011;31152;49.190;8.122;2023-08-12T13:48:53;7.50;;;4.78;;
30185;SDS011;31152;49.190;8.122;2023-08-12T13:51:22;8.50;;;4.95;;
30185;SDS011;31152;49.190;8.122;2023-08-12T13:53:49;10.38;;;4.72;;
30185;SDS011;31152;49.190;8.122;2023-08-12T13:56:18;8.95;;;4.60;;
30185;SDS011;31152;49.190;8.122;2023-08-12T13:58:46;8.75;;;4.18;;
30185;SDS011;31152;49.190;8.122;2023-08-12T14:01:15;9.90;;;4.43;;
30185;SDS011;31152;49.190;8.122;2023-08-12T14:03:42;6.15;;;4.22;;
30185;SDS011;31152;49.190;8.122;2023-08-12T14:06:09;6.18;;;4.15;;
30185;SDS011;31152;49.190;8.122;2023-08-12T14:08:39;7.97;;;4.50;;
30185;SDS011;31152;49.190;8.122;2023-08-12T14:11:05;10.77;;;4.13;;
30185;SDS011;31152;49.190;8.122;2023-08-12T14:13:32;9.27;;;4.10;;
30185;SDS011;31152;49.190;8.122;2023-08-12T14:15:59;7.65;;;4.20;;
30185;SDS011;31152;49.190;8.122;2023-08-12T14:18:25;9.32;;;4.40;;
30185;SDS011;31152;49.190;8.122;2023-08-12T14:20:52;7.55;;;4.22;;
30185;SDS011;31152;49.190;8.122;2023-08-12T14:23:19;9.00;;;4.55;;
30185;SDS011;31152;49.190;8.122;2023-08-12T14:25:46;9.32;;;4.32;;
30185;SDS011;31152;49.190;8.122;2023-08-12T14:28:12;9.07;;;4.22;;
30185;SDS011;31152;49.190;8.122;2023-08-12T14:30:41;10.05;;;4.72;;
30185;SDS011;31152;49.190;8.122;2023-08-12T14:33:08;9.32;;;4.43;;
30185;SDS011;31152;49.190;8.122;2023-08-12T14:35:35;9.43;;;4.07;;
30185;SDS011;31152;49.190;8.122;2023-08-12T14:38:02;6.45;;;4.18;;
30185;SDS011;31152;49.190;8.122;2023-08-12T14:40:30;7.95;;;4.03;;
30185;SDS011;31152;49.190;8.122;2023-08-12T14:42:59;7.55;;;4.18;;
30185;SDS011;31152;49.190;8.122;2023-08-12T14:45:26;5.28;;;3.40;;
30185;SDS011;31152;49.190;8.122;2023-08-12T14:47:53;10.20;;;4.22;;
30185;SDS011;31152;49.190;8.122;2023-08-12T14:50:20;7.10;;;3.80;;
30185;SDS011;31152;49.190;8.122;2023-08-12T14:52:46;6.18;;;3.30;;
30185;SDS011;31152;49.190;8.122;2023-08-12T14:55:16;5.63;;;3.50;;
30185;SDS011;31152;49.190;8.122;2023-08-12T14:57:45;7.13;;;3.22;;
30185;SDS011;31152;49.190;8.122;2023-08-12T15:00:12;6.63;;;2.97;;
30185;SDS011;31152;49.190;8.122;2023-08-12T15:02:39;6.20;;;3.30;;
30185;SDS011;31152;49.190;8.122;2023-08-12T15:05:06;5.38;;;3.13;;
30185;SDS011;31152;49.190;8.122;2023-08-12T15:07:33;6.05;;;3.30;;
30185;SDS011;31152;49.190;8.122;2023-08-12T15:10:02;7.90;;;3.10;;
30185;SDS011;31152;49.190;8.122;2023-08-12T15:12:30;9.50;;;3.58;;